sensor_id;sensor_type;location;lat;lon;timestamp;P1;durP1;ratioP1;P2;durP2;ratioP2
56073;SDS011;41950;55.840;37.442;2022-08-04T00:01:16;11.82;;;7.95;;
56073;SDS011;41950;55.840;37.442;2022-08-04T00:04:00;10.52;;;7.75;;
56073;SDS011;41950;55.840;37.442;2022-08-04T00:08:57;8.68;;;7.30;;
56073;SDS011;41950;55.840;37.442;2022-08-04T00:11:29;12.13;;;8.27;;
56073;SDS011;41950;55.840;37.442;2022-08-04T00:13:57;8.93;;;7.22;;
56073;SDS011;41950;55.840;37.442;2022-08-04T00:16:28;9.90;;;7.50;;
56073;SDS011;41950;55.840;37.442;2022-08-04T00:18:57;14.38;;;7.80;;
56073;SDS011;41950;55.840;37.442;2022-08-04T00:21:27;11.02;;;7.68;;
56073;SDS011;41950;55.840;37.442;2022-08-04T00:24:00;10.63;;;7.88;;
56073;SDS011;41950;55.840;37.442;2022-08-04T00:26:26;13.20;;;7.60;;
56073;SDS011;41950;55.840;37.442;2022-08-04T00:28:52;9.32;;;7.68;;
56073;SDS011;41950;55.840;37.442;2022-08-04T00:31:20;13.20;;;7.43;;
56073;SDS011;41950;55.840;37.442;2022-08-04T00:33:46;11.30;;;7.93;;
56073;SDS011;41950;55.840;37.442;2022-08-04T00:36:13;10.38;;;7.55;;
56073;SDS011;41950;55.840;37.442;2022-08-04T00:38:39;10.98;;;7.47;;
56073;SDS011;41950;55.840;37.442;2022-08-04T00:41:24;10.40;;;7.22;;
56073;SDS011;41950;55.840;37.442;2022-08-04T00:46:38;11.98;;;7.20;;
56073;SDS011;41950;55.840;37.442;2022-08-04T01:00:53;10.00;;;7.15;;
56073;SDS011;41950;55.840;37.442;2022-08-04T01:17:23;12.77;;;7.63;;
56073;SDS011;41950;55.840;37.442;2022-08-04T01:20:11;9.88;;;8.15;;
56073;SDS011;41950;55.840;37.442;2022-08-04T01:29:03;9.32;;;7.85;;
56073;SDS011;41950;55.840;37.442;2022-08-04T01:31:31;11.23;;;7.32;;
56073;SDS011;41950;55.840;37.442;2022-08-04T01:34:05;10.35;;;7.72;;
56073;SDS011;41950;55.840;37.442;2022-08-04T01:36:34;11.00;;;7.97;;
56073;SDS011;41950;55.840;37.442;2022-08-04T01:39:00;12.83;;;8.03;;
56073;SDS011;41950;55.840;37.442;2022-08-04T01:41:50;12.95;;;8.18;;
56073;SDS011;41950;55.840;37.442;2022-08-04T01:44:18;11.68;;;7.63;;
56073;SDS011;41950;55.840;37.442;2022-08-04T01:46:45;10.85;;;8.43;;
56073;SDS011;41950;55.840;37.442;2022-08-04T01:49:16;12.30;;;8.77;;
56073;SDS011;41950;55.840;37.442;2022-08-04T01:51:45;11.00;;;7.93;;
56073;SDS011;41950;55.840;37.442;2022-08-04T01:54:13;10.85;;;7.50;;
56073;SDS011;41950;55.840;37.442;2022-08-04T01:56:41;12.75;;;7.75;;
56073;SDS011;41950;55.840;37.442;2022-08-04T01:59:08;10.73;;;8.52;;
56073;SDS011;41950;55.840;37.442;2022-08-04T02:01:37;10.27;;;7.90;;
56073;SDS011;41950;55.840;37.442;2022-08-04T02:04:02;11.40;;;8.38;;
56073;SDS011;41950;55.840;37.442;2022-08-04T02:06:37;10.90;;;7.85;;
56073;SDS011;41950;55.840;37.442;2022-08-04T02:14:22;10.77;;;7.93;;
56073;SDS011;41950;55.840;37.442;2022-08-04T02:20:24;11.95;;;8.07;;
56073;SDS011;41950;55.840;37.442;2022-08-04T02:22:32;11.15;;;8.25;;
56073;SDS011;41950;55.840;37.442;2022-08-04T02:25:04;13.10;;;8.93;;
56073;SDS011;41950;55.840;37.442;2022-08-04T02:28:07;11.48;;;8.43;;
56073;SDS011;41950;55.840;37.442;2022-08-04T02:30:36;12.95;;;8.82;;
56073;SDS011;41950;55.840;37.442;2022-08-04T02:33:08;12.30;;;8.57;;
56073;SDS011;41950;55.840;37.442;2022-08-04T02:35:40;10.93;;;8.85;;
56073;SDS011;41950;55.840;37.442;2022-08-04T02:38:34;9.80;;;8.30;;
56073;SDS011;41950;55.840;37.442;2022-08-04T02:41:09;12.73;;;8.70;;
56073;SDS011;41950;55.840;37.442;2022-08-04T02:43:35;12.35;;;8.88;;
56073;SDS011;41950;55.840;37.442;2022-08-04T02:46:06;12.18;;;8.55;;
56073;SDS011;41950;55.840;37.442;2022-08-04T02:48:33;12.60;;;8.48;;
56073;SDS011;41950;55.840;37.442;2022-08-04T02:51:00;12.52;;;9.40;;
56073;SDS011;41950;55.840;37.442;2022-08-04T02:53:27;12.23;;;8.70;;
56073;SDS011;41950;55.840;37.442;2022-08-04T02:55:55;10.25;;;7.75;;
56073;SDS011;41950;55.840;37.442;2022-08-04T02:58:23;10.45;;;8.70;;
56073;SDS011;41950;55.840;37.442;2022-08-04T03:00:57;15.00;;;8.82;;
56073;SDS011;41950;55.840;37.442;2022-08-04T03:11:38;10.60;;;8.02;;
56073;SDS011;41950;55.840;37.442;2022-08-04T04:26:19;12.85;;;10.07;;
56073;SDS011;41950;55.840;37.442;2022-08-04T04:29:18;13.23;;;9.68;;
56073;SDS011;41950;55.840;37.442;2022-08-04T04:32:18;16.42;;;9.85;;
56073;SDS011;41950;55.840;37.442;2022-08-04T04:51:59;11.85;;;8.55;;
56073;SDS011;41950;55.840;37.442;2022-08-04T04:57:19;10.50;;;7.65;;
56073;SDS011;41950;55.840;37.442;2022-08-04T04:59:52;10.98;;;7.70;;
56073;SDS011;41950;55.840;37.442;2022-08-04T05:05:06;10.05;;;7.70;;
56073;SDS011;41950;55.840;37.442;2022-08-04T05:15:53;8.73;;;6.35;;
56073;SDS011;41950;55.840;37.442;2022-08-04T05:18:24;8.13;;;7.07;;
56073;SDS011;41950;55.840;37.442;2022-08-04T05:20:56;9.50;;;7.60;;
56073;SDS011;41950;55.840;37.442;2022-08-04T05:23:28;9.32;;;6.43;;
56073;SDS011;41950;55.840;37.442;2022-08-04T05:26:00;10.77;;;7.85;;
56073;SDS011;41950;55.840;37.442;2022-08-04T05:31:09;11.48;;;8.10;;
56073;SDS011;41950;55.840;37.442;2022-08-04T05:33:41;16.38;;;10.25;;
56073;SDS011;41950;55.840;37.442;2022-08-04T05:36:14;9.32;;;6.63;;
56073;SDS011;41950;55.840;37.442;2022-08-04T05:38:42;9.60;;;6.10;;
56073;SDS011;41950;55.840;37.442;2022-08-04T05:41:10;19.48;;;13.02;;
56073;SDS011;41950;55.840;37.442;2022-08-04T05:43:37;17.48;;;8.07;;
56073;SDS011;41950;55.840;37.442;2022-08-04T05:46:05;9.48;;;6.10;;
56073;SDS011;41950;55.840;37.442;2022-08-04T05:48:33;7.35;;;5.68;;
56073;SDS011;41950;55.840;37.442;2022-08-04T05:51:00;12.00;;;6.03;;
56073;SDS011;41950;55.840;37.442;2022-08-04T05:53:28;7.68;;;4.70;;
56073;SDS011;41950;55.840;37.442;2022-08-04T05:55:55;6.82;;;5.07;;
56073;SDS011;41950;55.840;37.442;2022-08-04T05:58:22;7.55;;;4.45;;
56073;SDS011;41950;55.840;37.442;2022-08-04T06:00:49;7.13;;;4.32;;
56073;SDS011;41950;55.840;37.442;2022-08-04T06:03:19;6.90;;;4.60;;
56073;SDS011;41950;55.840;37.442;2022-08-04T06:05:47;7.95;;;4.45;;
56073;SDS011;41950;55.840;37.442;2022-08-04T06:08:14;6.63;;;4.32;;
56073;SDS011;41950;55.840;37.442;2022-08-04T06:10:40;7.57;;;4.45;;
56073;SDS011;41950;55.840;37.442;2022-08-04T06:13:12;8.02;;;4.10;;
56073;SDS011;41950;55.840;37.442;2022-08-04T06:15:41;7.65;;;4.80;;
56073;SDS011;41950;55.840;37.442;2022-08-04T06:18:10;6.13;;;3.97;;
56073;SDS011;41950;55.840;37.442;2022-08-04T06:20:38;6.88;;;3.50;;
56073;SDS011;41950;55.840;37.442;2022-08-04T06:23:07;7.95;;;3.85;;
56073;SDS011;41950;55.840;37.442;2022-08-04T06:25:37;6.30;;;3.92;;
56073;SDS011;41950;55.840;37.442;2022-08-04T06:28:07;5.82;;;3.55;;
56073;SDS011;41950;55.840;37.442;2022-08-04T06:30:34;8.25;;;3.50;;
56073;SDS011;41950;55.840;37.442;2022-08-04T06:33:01;4.85;;;2.90;;
56073;SDS011;41950;55.840;37.442;2022-08-04T06:35:37;5.50;;;3.08;;
56073;SDS011;41950;55.840;37.442;2022-08-04T06:38:05;6.25;;;2.80;;
56073;SDS011;41950;55.840;37.442;2022-08-04T06:40:32;5.18;;;2.83;;
56073;SDS011;41950;55.840;37.442;2022-08-04T06:42:59;4.93;;;3.10;;
56073;SDS011;41950;55.840;37.442;2022-08-04T06:45:27;7.05;;;2.92;;
56073;SDS011;41950;55.840;37.442;2022-08-04T06:47:53;4.88;;;3.00;;
56073;SDS011;41950;55.840;37.442;2022-08-04T06:50:20;6.03;;;2.85;;
56073;SDS011;41950;55.840;37.442;2022-08-04T06:52:47;10.45;;;3.30;;
56073;SDS011;41950;55.840;37.442;2022-08-04T06:55:12;4.28;;;2.72;;
56073;SDS011;41950;55.840;37.442;2022-08-04T06:57:38;7.45;;;2.70;;
56073;SDS011;41950;55.840;37.442;2022-08-04T07:00:06;7.32;;;3.40;;
56073;SDS011;41950;55.840;37.442;2022-08-04T07:02:44;7.72;;;3.80;;
56073;SDS011;41950;55.840;37.442;2022-08-04T07:05:14;4.85;;;2.83;;
56073;SDS011;41950;55.840;37.442;2022-08-04T07:07:42;4.53;;;2.60;;
56073;SDS011;41950;55.840;37.442;2022-08-04T07:10:11;5.38;;;2.95;;
56073;SDS011;41950;55.840;37.442;2022-08-04T07:12:39;5.15;;;2.90;;
56073;SDS011;41950;55.840;37.442;2022-08-04T07:15:06;6.50;;;2.90;;
56073;SDS011;41950;55.840;37.442;2022-08-04T07:17:34;5.13;;;2.90;;
56073;SDS011;41950;55.840;37.442;2022-08-04T07:20:02;3.85;;;2.67;;
56073;SDS011;41950;55.840;37.442;2022-08-04T07:22:29;4.75;;;3.00;;
56073;SDS011;41950;55.840;37.442;2022-08-04T07:24:58;4.97;;;2.67;;
56073;SDS011;41950;55.840;37.442;2022-08-04T07:27:24;4.30;;;2.42;;
56073;SDS011;41950;55.840;37.442;2022-08-04T07:29:51;5.45;;;2.80;;
56073;SDS011;41950;55.840;37.442;2022-08-04T07:32:18;4.13;;;2.65;;
56073;SDS011;41950;55.840;37.442;2022-08-04T07:34:46;5.20;;;2.83;;
56073;SDS011;41950;55.840;37.442;2022-08-04T07:37:13;5.65;;;2.50;;
56073;SDS011;41950;55.840;37.442;2022-08-04T07:39:39;4.43;;;2.63;;
56073;SDS011;41950;55.840;37.442;2022-08-04T07:42:05;4.72;;;2.67;;
56073;SDS011;41950;55.840;37.442;2022-08-04T07:44:31;3.25;;;2.40;;
56073;SDS011;41950;55.840;37.442;2022-08-04T07:47:02;4.00;;;2.80;;
56073;SDS011;41950;55.840;37.442;2022-08-04T07:49:29;4.50;;;3.25;;
56073;SDS011;41950;55.840;37.442;2022-08-04T07:51:55;4.53;;;2.70;;
56073;SDS011;41950;55.840;37.442;2022-08-04T07:54:22;4.15;;;3.00;;
56073;SDS011;41950;55.840;37.442;2022-08-04T07:56:48;6.00;;;3.08;;
56073;SDS011;41950;55.840;37.442;2022-08-04T07:59:16;5.22;;;2.95;;
56073;SDS011;41950;55.840;37.442;2022-08-04T08:01:45;5.97;;;3.10;;
56073;SDS011;41950;55.840;37.442;2022-08-04T08:04:12;3.20;;;2.50;;
56073;SDS011;41950;55.840;37.442;2022-08-04T08:06:39;4.10;;;2.75;;
56073;SDS011;41950;55.840;37.442;2022-08-04T08:09:06;5.05;;;3.13;;
56073;SDS011;41950;55.840;37.442;2022-08-04T08:11:36;4.68;;;3.00;;
56073;SDS011;41950;55.840;37.442;2022-08-04T08:14:05;5.78;;;3.15;;
56073;SDS011;41950;55.840;37.442;2022-08-04T08:16:33;4.15;;;3.15;;
56073;SDS011;41950;55.840;37.442;2022-08-04T08:19:00;5.13;;;3.60;;
56073;SDS011;41950;55.840;37.442;2022-08-04T08:21:28;6.80;;;3.33;;
56073;SDS011;41950;55.840;37.442;2022-08-04T08:23:54;5.85;;;3.83;;
56073;SDS011;41950;55.840;37.442;2022-08-04T08:26:21;4.70;;;2.58;;
56073;SDS011;41950;55.840;37.442;2022-08-04T08:28:46;5.15;;;2.90;;
56073;SDS011;41950;55.840;37.442;2022-08-04T08:31:12;5.50;;;2.90;;
56073;SDS011;41950;55.840;37.442;2022-08-04T08:33:38;7.82;;;3.15;;
56073;SDS011;41950;55.840;37.442;2022-08-04T08:36:18;3.70;;;2.63;;
56073;SDS011;41950;55.840;37.442;2022-08-04T08:49:50;5.35;;;2.90;;
56073;SDS011;41950;55.840;37.442;2022-08-04T08:52:47;4.43;;;3.00;;
56073;SDS011;41950;55.840;37.442;2022-08-04T08:58:37;5.03;;;3.03;;
56073;SDS011;41950;55.840;37.442;2022-08-04T09:13:00;3.60;;;2.95;;
56073;SDS011;41950;55.840;37.442;2022-08-04T09:15:51;5.47;;;3.40;;
56073;SDS011;41950;55.840;37.442;2022-08-04T09:18:25;4.93;;;3.28;;
56073;SDS011;41950;55.840;37.442;2022-08-04T09:21:03;4.18;;;3.65;;
56073;SDS011;41950;55.840;37.442;2022-08-04T09:26:20;6.10;;;4.50;;
56073;SDS011;41950;55.840;37.442;2022-08-04T09:29:05;4.10;;;3.17;;
56073;SDS011;41950;55.840;37.442;2022-08-04T09:31:39;5.18;;;3.70;;
56073;SDS011;41950;55.840;37.442;2022-08-04T09:37:24;3.65;;;3.20;;
56073;SDS011;41950;55.840;37.442;2022-08-04T09:40:33;3.67;;;3.20;;
56073;SDS011;41950;55.840;37.442;2022-08-04T09:45:40;6.82;;;5.38;;
56073;SDS011;41950;55.840;37.442;2022-08-04T09:48:14;6.68;;;4.28;;
56073;SDS011;41950;55.840;37.442;2022-08-04T09:51:00;5.43;;;4.00;;
56073;SDS011;41950;55.840;37.442;2022-08-04T09:56:19;6.68;;;4.35;;
56073;SDS011;41950;55.840;37.442;2022-08-04T09:59:03;7.00;;;4.82;;
56073;SDS011;41950;55.840;37.442;2022-08-04T10:01:31;6.30;;;5.35;;
56073;SDS011;41950;55.840;37.442;2022-08-04T10:03:59;5.95;;;3.85;;
56073;SDS011;41950;55.840;37.442;2022-08-04T10:10:00;5.90;;;5.22;;
56073;SDS011;41950;55.840;37.442;2022-08-04T10:15:16;5.38;;;4.20;;
56073;SDS011;41950;55.840;37.442;2022-08-04T10:20:50;5.40;;;4.25;;
56073;SDS011;41950;55.840;37.442;2022-08-04T10:23:37;5.70;;;4.20;;
56073;SDS011;41950;55.840;37.442;2022-08-04T10:28:52;6.07;;;5.45;;
56073;SDS011;41950;55.840;37.442;2022-08-04T10:31:30;7.13;;;4.90;;
56073;SDS011;41950;55.840;37.442;2022-08-04T10:34:09;5.65;;;4.80;;
56073;SDS011;41950;55.840;37.442;2022-08-04T10:36:39;6.15;;;4.10;;
56073;SDS011;41950;55.840;37.442;2022-08-04T10:39:12;7.45;;;6.20;;
56073;SDS011;41950;55.840;37.442;2022-08-04T10:41:53;7.13;;;5.20;;
56073;SDS011;41950;55.840;37.442;2022-08-04T10:47:18;6.80;;;4.88;;
56073;SDS011;41950;55.840;37.442;2022-08-04T10:49:55;5.70;;;4.53;;
56073;SDS011;41950;55.840;37.442;2022-08-04T10:52:33;6.38;;;4.63;;
56073;SDS011;41950;55.840;37.442;2022-08-04T10:55:19;5.75;;;4.50;;
56073;SDS011;41950;55.840;37.442;2022-08-04T10:57:55;5.25;;;4.75;;
56073;SDS011;41950;55.840;37.442;2022-08-04T11:00:29;6.32;;;4.63;;
56073;SDS011;41950;55.840;37.442;2022-08-04T11:03:16;6.80;;;4.53;;
56073;SDS011;41950;55.840;37.442;2022-08-04T11:05:54;10.60;;;5.03;;
56073;SDS011;41950;55.840;37.442;2022-08-04T11:08:41;5.15;;;4.35;;
56073;SDS011;41950;55.840;37.442;2022-08-04T11:11:29;6.85;;;4.93;;
56073;SDS011;41950;55.840;37.442;2022-08-04T11:14:02;18.63;;;7.00;;
56073;SDS011;41950;55.840;37.442;2022-08-04T11:22:25;6.55;;;5.05;;
56073;SDS011;41950;55.840;37.442;2022-08-04T11:30:33;6.68;;;5.13;;
56073;SDS011;41950;55.840;37.442;2022-08-04T11:33:48;6.20;;;4.80;;
56073;SDS011;41950;55.840;37.442;2022-08-04T11:41:09;5.93;;;5.32;;
56073;SDS011;41950;55.840;37.442;2022-08-04T11:43:44;7.15;;;5.07;;
56073;SDS011;41950;55.840;37.442;2022-08-04T11:46:27;6.28;;;5.38;;
56073;SDS011;41950;55.840;37.442;2022-08-04T11:49:04;7.60;;;5.63;;
56073;SDS011;41950;55.840;37.442;2022-08-04T11:51:33;6.22;;;5.63;;
56073;SDS011;41950;55.840;37.442;2022-08-04T11:54:00;6.53;;;5.70;;
56073;SDS011;41950;55.840;37.442;2022-08-04T11:56:26;6.65;;;5.70;;
56073;SDS011;41950;55.840;37.442;2022-08-04T11:58:53;6.72;;;5.80;;
56073;SDS011;41950;55.840;37.442;2022-08-04T12:18:26;19.30;;;8.57;;
56073;SDS011;41950;55.840;37.442;2022-08-04T12:20:44;6.72;;;5.45;;
56073;SDS011;41950;55.840;37.442;2022-08-04T12:23:14;7.15;;;5.68;;
56073;SDS011;41950;55.840;37.442;2022-08-04T12:25:47;6.55;;;5.78;;
56073;SDS011;41950;55.840;37.442;2022-08-04T12:28:30;7.03;;;5.70;;
56073;SDS011;41950;55.840;37.442;2022-08-04T12:31:07;8.00;;;5.90;;
56073;SDS011;41950;55.840;37.442;2022-08-04T12:36:19;8.25;;;5.82;;
56073;SDS011;41950;55.840;37.442;2022-08-04T12:38:58;8.60;;;5.97;;
56073;SDS011;41950;55.840;37.442;2022-08-04T12:41:35;6.20;;;5.38;;
56073;SDS011;41950;55.840;37.442;2022-08-04T12:44:05;6.22;;;5.50;;
56073;SDS011;41950;55.840;37.442;2022-08-04T12:46:37;49.58;;;9.77;;
56073;SDS011;41950;55.840;37.442;2022-08-04T12:49:05;8.52;;;5.65;;
56073;SDS011;41950;55.840;37.442;2022-08-04T12:51:36;7.03;;;5.40;;
56073;SDS011;41950;55.840;37.442;2022-08-04T12:54:05;6.43;;;5.82;;
56073;SDS011;41950;55.840;37.442;2022-08-04T12:56:33;7.47;;;6.53;;
56073;SDS011;41950;55.840;37.442;2022-08-04T12:59:01;8.98;;;6.65;;
56073;SDS011;41950;55.840;37.442;2022-08-04T13:01:32;6.93;;;5.90;;
56073;SDS011;41950;55.840;37.442;2022-08-04T13:04:12;8.75;;;6.25;;
56073;SDS011;41950;55.840;37.442;2022-08-04T13:06:42;7.90;;;5.60;;
56073;SDS011;41950;55.840;37.442;2022-08-04T13:09:15;7.53;;;5.90;;
56073;SDS011;41950;55.840;37.442;2022-08-04T13:11:46;8.07;;;6.22;;
56073;SDS011;41950;55.840;37.442;2022-08-04T13:14:19;9.13;;;6.10;;
56073;SDS011;41950;55.840;37.442;2022-08-04T13:16:46;8.02;;;5.70;;
56073;SDS011;41950;55.840;37.442;2022-08-04T13:19:12;6.38;;;5.78;;
56073;SDS011;41950;55.840;37.442;2022-08-04T13:21:39;6.78;;;5.97;;
56073;SDS011;41950;55.840;37.442;2022-08-04T13:24:14;9.27;;;6.03;;
56073;SDS011;41950;55.840;37.442;2022-08-04T13:26:49;7.25;;;6.55;;
56073;SDS011;41950;55.840;37.442;2022-08-04T13:29:35;6.97;;;6.25;;
56073;SDS011;41950;55.840;37.442;2022-08-04T13:32:03;8.27;;;7.47;;
56073;SDS011;41950;55.840;37.442;2022-08-04T13:34:33;8.00;;;7.20;;
56073;SDS011;41950;55.840;37.442;2022-08-04T13:37:02;8.52;;;7.40;;
56073;SDS011;41950;55.840;37.442;2022-08-04T13:39:30;7.93;;;7.13;;
56073;SDS011;41950;55.840;37.442;2022-08-04T13:41:59;9.05;;;7.07;;
56073;SDS011;41950;55.840;37.442;2022-08-04T13:44:29;8.27;;;7.25;;
56073;SDS011;41950;55.840;37.442;2022-08-04T13:49:36;21.80;;;12.70;;
56073;SDS011;41950;55.840;37.442;2022-08-04T13:52:03;14.15;;;10.05;;
56073;SDS011;41950;55.840;37.442;2022-08-04T13:54:43;12.10;;;9.13;;
56073;SDS011;41950;55.840;37.442;2022-08-04T13:57:15;8.57;;;7.10;;
56073;SDS011;41950;55.840;37.442;2022-08-04T13:59:44;7.85;;;7.05;;
56073;SDS011;41950;55.840;37.442;2022-08-04T14:02:29;8.38;;;7.00;;
56073;SDS011;41950;55.840;37.442;2022-08-04T14:05:00;9.95;;;7.32;;
56073;SDS011;41950;55.840;37.442;2022-08-04T14:07:41;8.70;;;6.60;;
56073;SDS011;41950;55.840;37.442;2022-08-04T14:10:14;7.53;;;6.80;;
56073;SDS011;41950;55.840;37.442;2022-08-04T14:12:47;15.60;;;9.35;;
56073;SDS011;41950;55.840;37.442;2022-08-04T14:18:17;10.75;;;8.20;;
56073;SDS011;41950;55.840;37.442;2022-08-04T14:21:00;7.80;;;7.00;;
56073;SDS011;41950;55.840;37.442;2022-08-04T14:28:46;15.30;;;7.88;;
56073;SDS011;41950;55.840;37.442;2022-08-04T14:31:13;55.05;;;11.80;;
56073;SDS011;41950;55.840;37.442;2022-08-04T14:33:44;8.55;;;6.78;;
56073;SDS011;41950;55.840;37.442;2022-08-04T14:36:11;7.85;;;6.85;;
56073;SDS011;41950;55.840;37.442;2022-08-04T14:41:42;10.00;;;7.82;;
56073;SDS011;41950;55.840;37.442;2022-08-04T14:44:10;8.43;;;7.60;;
56073;SDS011;41950;55.840;37.442;2022-08-04T14:46:49;8.93;;;8.05;;
56073;SDS011;41950;55.840;37.442;2022-08-04T14:49:19;9.63;;;8.43;;
56073;SDS011;41950;55.840;37.442;2022-08-04T14:51:52;8.10;;;7.25;;
56073;SDS011;41950;55.840;37.442;2022-08-04T14:54:27;11.27;;;7.80;;
56073;SDS011;41950;55.840;37.442;2022-08-04T14:57:02;7.80;;;7.07;;
56073;SDS011;41950;55.840;37.442;2022-08-04T14:59:48;9.00;;;8.10;;
56073;SDS011;41950;55.840;37.442;2022-08-04T15:02:14;8.30;;;7.38;;
56073;SDS011;41950;55.840;37.442;2022-08-04T15:04:45;10.18;;;7.45;;
56073;SDS011;41950;55.840;37.442;2022-08-04T15:07:11;8.23;;;7.32;;
56073;SDS011;41950;55.840;37.442;2022-08-04T15:09:38;9.45;;;7.40;;
56073;SDS011;41950;55.840;37.442;2022-08-04T15:12:06;8.13;;;7.32;;
56073;SDS011;41950;55.840;37.442;2022-08-04T15:14:34;14.30;;;7.55;;
56073;SDS011;41950;55.840;37.442;2022-08-04T15:17:00;10.10;;;7.28;;
56073;SDS011;41950;55.840;37.442;2022-08-04T15:19:26;9.32;;;8.40;;
56073;SDS011;41950;55.840;37.442;2022-08-04T15:21:53;10.00;;;7.25;;
56073;SDS011;41950;55.840;37.442;2022-08-04T15:24:20;8.18;;;7.32;;
56073;SDS011;41950;55.840;37.442;2022-08-04T15:26:49;8.77;;;7.47;;
56073;SDS011;41950;55.840;37.442;2022-08-04T15:29:21;8.05;;;7.25;;
56073;SDS011;41950;55.840;37.442;2022-08-04T15:31:51;9.65;;;7.60;;
56073;SDS011;41950;55.840;37.442;2022-08-04T15:34:19;8.93;;;7.75;;
56073;SDS011;41950;55.840;37.442;2022-08-04T15:36:47;9.73;;;7.43;;
56073;SDS011;41950;55.840;37.442;2022-08-04T15:45:11;10.63;;;8.20;;
56073;SDS011;41950;55.840;37.442;2022-08-04T15:48:27;17.63;;;16.00;;
56073;SDS011;41950;55.840;37.442;2022-08-04T16:54:35;11.32;;;9.85;;
56073;SDS011;41950;55.840;37.442;2022-08-04T17:01:15;13.10;;;10.05;;
56073;SDS011;41950;55.840;37.442;2022-08-04T17:08:23;13.27;;;10.70;;
56073;SDS011;41950;55.840;37.442;2022-08-04T17:22:04;13.85;;;10.93;;
56073;SDS011;41950;55.840;37.442;2022-08-04T17:31:46;12.25;;;11.02;;
56073;SDS011;41950;55.840;37.442;2022-08-04T17:35:18;12.93;;;10.75;;
56073;SDS011;41950;55.840;37.442;2022-08-04T17:38:08;12.50;;;11.07;;
56073;SDS011;41950;55.840;37.442;2022-08-04T17:55:53;13.27;;;11.98;;
56073;SDS011;41950;55.840;37.442;2022-08-04T17:58:16;12.45;;;11.35;;
56073;SDS011;41950;55.840;37.442;2022-08-04T18:01:01;13.02;;;11.77;;
56073;SDS011;41950;55.840;37.442;2022-08-04T18:03:27;14.93;;;12.38;;
56073;SDS011;41950;55.840;37.442;2022-08-04T18:05:53;14.02;;;12.63;;
56073;SDS011;41950;55.840;37.442;2022-08-04T18:08:23;13.85;;;12.45;;
56073;SDS011;41950;55.840;37.442;2022-08-04T18:10:50;13.27;;;11.87;;
56073;SDS011;41950;55.840;37.442;2022-08-04T18:13:17;14.48;;;12.10;;
56073;SDS011;41950;55.840;37.442;2022-08-04T18:15:45;15.00;;;12.48;;
56073;SDS011;41950;55.840;37.442;2022-08-04T18:18:18;15.40;;;13.77;;
56073;SDS011;41950;55.840;37.442;2022-08-04T18:20:46;17.65;;;15.98;;
56073;SDS011;41950;55.840;37.442;2022-08-04T18:23:12;15.88;;;13.85;;
56073;SDS011;41950;55.840;37.442;2022-08-04T18:25:43;16.05;;;13.43;;
56073;SDS011;41950;55.840;37.442;2022-08-04T18:28:09;15.85;;;13.07;;
56073;SDS011;41950;55.840;37.442;2022-08-04T18:30:37;15.73;;;12.57;;
56073;SDS011;41950;55.840;37.442;2022-08-04T18:33:03;17.55;;;12.57;;
56073;SDS011;41950;55.840;37.442;2022-08-04T18:35:29;13.95;;;12.52;;
56073;SDS011;41950;55.840;37.442;2022-08-04T18:37:58;15.43;;;13.35;;
56073;SDS011;41950;55.840;37.442;2022-08-04T18:40:27;16.92;;;13.15;;
56073;SDS011;41950;55.840;37.442;2022-08-04T18:42:53;14.50;;;12.63;;
56073;SDS011;41950;55.840;37.442;2022-08-04T18:45:19;14.43;;;12.93;;
56073;SDS011;41950;55.840;37.442;2022-08-04T18:47:45;14.50;;;12.82;;
56073;SDS011;41950;55.840;37.442;2022-08-04T18:50:10;14.80;;;13.27;;
56073;SDS011;41950;55.840;37.442;2022-08-04T18:52:36;14.95;;;13.30;;
56073;SDS011;41950;55.840;37.442;2022-08-04T18:55:02;14.93;;;12.90;;
56073;SDS011;41950;55.840;37.442;2022-08-04T18:57:29;17.85;;;13.85;;
56073;SDS011;41950;55.840;37.442;2022-08-04T18:59:55;15.70;;;13.00;;
56073;SDS011;41950;55.840;37.442;2022-08-04T19:02:21;15.05;;;13.13;;
56073;SDS011;41950;55.840;37.442;2022-08-04T19:04:47;15.45;;;12.45;;
56073;SDS011;41950;55.840;37.442;2022-08-04T19:07:14;15.20;;;13.45;;
56073;SDS011;41950;55.840;37.442;2022-08-04T19:09:41;18.27;;;12.32;;
56073;SDS011;41950;55.840;37.442;2022-08-04T19:12:07;16.40;;;13.00;;
56073;SDS011;41950;55.840;37.442;2022-08-04T19:14:33;16.92;;;12.82;;
56073;SDS011;41950;55.840;37.442;2022-08-04T19:16:59;16.35;;;12.57;;
56073;SDS011;41950;55.840;37.442;2022-08-04T19:19:25;15.55;;;12.40;;
56073;SDS011;41950;55.840;37.442;2022-08-04T19:21:51;14.98;;;13.38;;
56073;SDS011;41950;55.840;37.442;2022-08-04T19:24:19;17.95;;;13.60;;
56073;SDS011;41950;55.840;37.442;2022-08-04T19:26:46;14.60;;;13.05;;
56073;SDS011;41950;55.840;37.442;2022-08-04T19:29:12;16.02;;;13.18;;
56073;SDS011;41950;55.840;37.442;2022-08-04T19:31:39;15.10;;;13.27;;
56073;SDS011;41950;55.840;37.442;2022-08-04T19:34:05;19.33;;;13.55;;
56073;SDS011;41950;55.840;37.442;2022-08-04T19:36:31;17.42;;;14.38;;
56073;SDS011;41950;55.840;37.442;2022-08-04T19:38:57;16.42;;;13.10;;
56073;SDS011;41950;55.840;37.442;2022-08-04T19:41:24;14.15;;;12.75;;
56073;SDS011;41950;55.840;37.442;2022-08-04T19:43:51;15.10;;;13.05;;
56073;SDS011;41950;55.840;37.442;2022-08-04T19:46:16;14.75;;;12.63;;
56073;SDS011;41950;55.840;37.442;2022-08-04T19:48:45;16.23;;;12.60;;
56073;SDS011;41950;55.840;37.442;2022-08-04T19:51:11;15.90;;;13.73;;
56073;SDS011;41950;55.840;37.442;2022-08-04T19:53:36;16.90;;;12.27;;
56073;SDS011;41950;55.840;37.442;2022-08-04T19:56:02;14.82;;;13.10;;
56073;SDS011;41950;55.840;37.442;2022-08-04T19:58:28;15.13;;;12.93;;
56073;SDS011;41950;55.840;37.442;2022-08-04T20:00:54;17.50;;;13.45;;
56073;SDS011;41950;55.840;37.442;2022-08-04T20:03:19;15.85;;;13.00;;
56073;SDS011;41950;55.840;37.442;2022-08-04T20:05:45;14.63;;;13.10;;
56073;SDS011;41950;55.840;37.442;2022-08-04T20:08:11;16.20;;;13.10;;
56073;SDS011;41950;55.840;37.442;2022-08-04T20:10:36;15.27;;;12.90;;
56073;SDS011;41950;55.840;37.442;2022-08-04T20:13:03;13.90;;;12.45;;
56073;SDS011;41950;55.840;37.442;2022-08-04T20:15:29;15.45;;;12.75;;
56073;SDS011;41950;55.840;37.442;2022-08-04T20:17:55;15.85;;;12.50;;
56073;SDS011;41950;55.840;37.442;2022-08-04T20:20:21;17.92;;;12.43;;
56073;SDS011;41950;55.840;37.442;2022-08-04T20:22:47;14.90;;;13.13;;
56073;SDS011;41950;55.840;37.442;2022-08-04T20:25:13;16.15;;;12.75;;
56073;SDS011;41950;55.840;37.442;2022-08-04T20:27:38;16.27;;;13.23;;
56073;SDS011;41950;55.840;37.442;2022-08-04T20:30:04;19.75;;;15.07;;
56073;SDS011;41950;55.840;37.442;2022-08-04T20:32:30;17.45;;;14.55;;
56073;SDS011;41950;55.840;37.442;2022-08-04T20:34:56;17.58;;;13.43;;
56073;SDS011;41950;55.840;37.442;2022-08-04T20:37:23;17.70;;;13.40;;
56073;SDS011;41950;55.840;37.442;2022-08-04T20:42:20;19.02;;;13.32;;
56073;SDS011;41950;55.840;37.442;2022-08-04T20:44:46;17.60;;;12.55;;
56073;SDS011;41950;55.840;37.442;2022-08-04T20:47:11;19.75;;;12.90;;
56073;SDS011;41950;55.840;37.442;2022-08-04T20:49:37;16.98;;;12.90;;
56073;SDS011;41950;55.840;37.442;2022-08-04T20:52:03;19.20;;;13.02;;
56073;SDS011;41950;55.840;37.442;2022-08-04T20:54:29;19.38;;;12.95;;
56073;SDS011;41950;55.840;37.442;2022-08-04T20:56:55;19.50;;;13.70;;
56073;SDS011;41950;55.840;37.442;2022-08-04T20:59:22;17.17;;;13.38;;
56073;SDS011;41950;55.840;37.442;2022-08-04T21:01:49;22.08;;;14.68;;
56073;SDS011;41950;55.840;37.442;2022-08-04T21:04:15;20.27;;;14.68;;